createdAt,value
2023-04-02T00:01:18.230Z,0.20
2023-04-02T00:03:44.941Z,0.20
2023-04-02T00:06:34.296Z,0.22
2023-04-02T00:09:04.665Z,0.20
2023-04-02T00:11:41.406Z,0.10
2023-04-02T00:14:29.177Z,0.17
2023-04-02T00:16:58.233Z,0.30
2023-04-02T00:19:31.975Z,0.28
2023-04-02T00:22:00.369Z,0.20
2023-04-02T00:24:27.160Z,0.10
2023-04-02T00:26:55.178Z,0.30
2023-04-02T00:29:21.793Z,0.30
2023-04-02T00:31:54.413Z,0.20
2023-04-02T00:34:33.827Z,0.20
2023-04-02T00:37:01.751Z,0.20
2023-04-02T00:39:39.155Z,0.30
2023-04-02T00:42:06.368Z,0.20
2023-04-02T00:44:38.599Z,0.20
2023-04-02T00:47:26.904Z,0.25
2023-04-02T00:50:01.418Z,0.30
2023-04-02T00:52:31.705Z,0.20
2023-04-02T00:55:19.310Z,0.20
2023-04-02T00:57:46.971Z,0.20
2023-04-02T01:00:27.699Z,0.10
2023-04-02T01:03:13.024Z,0.20
2023-04-02T01:05:42.431Z,0.15
2023-04-02T01:08:31.344Z,0.20
2023-04-02T01:11:35.828Z,0.20
2023-04-02T01:14:37.470Z,0.20
2023-04-02T01:17:08.662Z,0.20
2023-04-02T01:19:44.988Z,0.20
2023-04-02T01:22:19.882Z,0.30
2023-04-02T01:24:47.313Z,0.20
2023-04-02T01:27:26.375Z,0.22
2023-04-02T01:29:58.613Z,0.30
2023-04-02T01:32:28.577Z,0.20
2023-04-02T01:34:56.181Z,1.15
2023-04-02T01:37:36.599Z,0.20
2023-04-02T01:40:25.014Z,0.20
2023-04-02T01:42:57.848Z,0.20
2023-04-02T01:45:24.913Z,0.20
2023-04-02T01:47:51.888Z,0.60
2023-04-02T01:50:31.570Z,0.30
2023-04-02T01:53:04.945Z,0.20
2023-04-02T01:55:47.055Z,0.20
2023-04-02T01:58:17.313Z,0.30
2023-04-02T02:00:53.378Z,0.20
2023-04-02T02:03:21.681Z,0.40
2023-04-02T02:05:48.747Z,0.20
2023-04-02T02:08:45.926Z,0.20
2023-04-02T02:11:21.544Z,0.20
2023-04-02T02:14:01.754Z,0.30
2023-04-02T02:16:31.747Z,0.10
2023-04-02T02:19:02.764Z,0.10
2023-04-02T02:21:49.985Z,0.20
2023-04-02T02:24:31.531Z,0.20
2023-04-02T02:27:18.927Z,0.20
2023-04-02T02:29:49.733Z,0.20
2023-04-02T02:32:20.570Z,0.20
2023-04-02T02:34:54.720Z,0.20
2023-04-02T02:37:29.655Z,0.20
2023-04-02T02:40:01.244Z,0.20
2023-04-02T02:42:42.810Z,0.20
2023-04-02T02:45:24.878Z,0.20
2023-04-02T02:47:53.364Z,0.30
2023-04-02T02:50:32.635Z,0.30
2023-04-02T02:53:09.744Z,0.20
2023-04-02T02:55:38.031Z,0.20
2023-04-02T02:58:19.355Z,0.20
2023-04-02T03:01:06.642Z,0.17
2023-04-02T03:03:35.625Z,0.30
2023-04-02T03:06:10.190Z,0.20
2023-04-02T03:08:49.331Z,0.20
2023-04-02T03:11:52.894Z,0.30
2023-04-02T03:14:31.554Z,0.20
2023-04-02T03:17:11.445Z,0.10
2023-04-02T03:19:50.485Z,0.20
2023-04-02T03:22:37.193Z,0.20
2023-04-02T03:25:41.329Z,0.20
2023-04-02T03:28:14.197Z,0.22
2023-04-02T03:30:50.282Z,0.20
2023-04-02T03:33:26.991Z,0.30
2023-04-02T03:36:13.125Z,0.30
2023-04-02T03:39:20.645Z,0.20
2023-04-02T03:42:09.332Z,0.20
2023-04-02T03:44:46.027Z,0.20
2023-04-02T03:47:19.062Z,0.30
2023-04-02T03:49:55.355Z,0.30
2023-04-02T03:52:27.451Z,0.20
2023-04-02T03:57:38.095Z,0.20
2023-04-02T04:00:14.272Z,0.20
2023-04-02T04:02:53.132Z,0.20
2023-04-02T04:05:38.003Z,0.22
2023-04-02T04:08:18.839Z,0.50
2023-04-02T04:10:49.951Z,0.40
2023-04-02T04:13:23.912Z,0.25
2023-04-02T04:15:57.776Z,0.43
2023-04-02T04:18:46.523Z,0.20
2023-04-02T04:21:37.603Z,0.20
2023-04-02T04:24:21.829Z,0.10
2023-04-02T04:27:03.673Z,0.40
2023-04-02T04:29:53.364Z,0.30
2023-04-02T04:32:27.590Z,0.30
2023-04-02T04:35:04.562Z,0.20
2023-04-02T04:37:37.538Z,0.40
2023-04-02T04:40:13.824Z,0.22
2023-04-02T04:42:43.276Z,0.20
2023-04-02T04:45:28.830Z,0.28
2023-04-02T04:48:37.954Z,0.20
2023-04-02T04:51:17.098Z,0.20
2023-04-02T04:53:49.918Z,0.20
2023-04-02T04:56:24.765Z,0.65
2023-04-02T04:58:59.336Z,0.20
2023-04-02T05:01:42.757Z,0.20
2023-04-02T05:04:35.520Z,0.17
2023-04-02T05:07:25.253Z,0.30
2023-04-02T05:10:17.191Z,0.20
2023-04-02T05:12:52.496Z,0.20
2023-04-02T05:15:32.654Z,0.30
2023-04-02T05:18:13.541Z,0.20
2023-04-02T05:20:54.652Z,0.28
2023-04-02T05:23:28.542Z,0.20
2023-04-02T05:26:11.504Z,0.77
2023-04-02T05:28:50.524Z,0.20
2023-04-02T05:31:36.063Z,0.20
2023-04-02T05:34:03.767Z,0.40
2023-04-02T05:36:32.360Z,0.25
2023-04-02T05:39:00.936Z,0.30
2023-04-02T05:41:45.769Z,0.20
2023-04-02T05:44:35.051Z,0.30
2023-04-02T05:47:12.409Z,0.30
2023-04-02T05:49:39.202Z,0.93
2023-04-02T05:52:15.379Z,0.22
2023-04-02T05:54:45.665Z,0.30
2023-04-02T05:57:17.922Z,0.20
2023-04-02T05:59:50.222Z,0.20
2023-04-02T06:02:25.044Z,0.30
2023-04-02T06:05:02.077Z,0.30
2023-04-02T06:07:59.186Z,0.20
2023-04-02T06:10:31.489Z,0.25
2023-04-02T06:13:18.868Z,0.20
2023-04-02T06:15:47.733Z,0.20
2023-04-02T06:18:25.229Z,0.30
2023-04-02T06:20:53.273Z,0.38
2023-04-02T06:23:34.962Z,0.30
2023-04-02T06:26:14.568Z,0.20
2023-04-02T06:28:48.326Z,0.30
2023-04-02T06:31:40.803Z,0.30
2023-04-02T06:34:16.637Z,0.20
2023-04-02T06:36:51.345Z,0.20
2023-04-02T06:39:22.764Z,0.30
2023-04-02T06:42:06.297Z,0.20
2023-04-02T06:44:56.179Z,0.28
2023-04-02T06:47:47.286Z,0.40
2023-04-02T06:50:24.006Z,0.30
2023-04-02T06:52:55.196Z,0.10
2023-04-02T06:55:31.892Z,0.10
2023-04-02T06:57:59.354Z,0.20
2023-04-02T07:00:39.171Z,0.40
2023-04-02T07:03:23.089Z,0.20
2023-04-02T07:05:50.774Z,0.35
2023-04-02T07:08:17.834Z,0.60
2023-04-02T07:10:44.832Z,0.40
2023-04-02T07:13:17.974Z,0.20
2023-04-02T07:15:52.324Z,0.20
2023-04-02T07:18:37.329Z,0.20
2023-04-02T07:21:06.131Z,0.30
2023-04-02T07:23:32.756Z,0.35
2023-04-02T07:25:59.464Z,0.20
2023-04-02T07:28:26.327Z,0.30
2023-04-02T07:30:54.575Z,0.30
2023-04-02T07:33:24.989Z,0.40
2023-04-02T07:35:53.203Z,0.28
2023-04-02T07:38:19.834Z,0.20
2023-04-02T07:40:46.724Z,0.40
2023-04-02T07:43:13.259Z,0.10
2023-04-02T07:45:39.778Z,0.40
2023-04-02T07:48:08.306Z,0.25
2023-04-02T07:50:35.454Z,0.20
2023-04-02T07:53:02.768Z,0.32
2023-04-02T07:55:29.317Z,0.20
2023-04-02T07:57:58.140Z,0.50
2023-04-02T08:00:26.608Z,0.25
2023-04-02T08:02:53.625Z,0.43
2023-04-02T08:05:20.335Z,0.20
2023-04-02T08:07:56.973Z,0.30
2023-04-02T08:10:24.404Z,0.30
2023-04-02T08:12:51.106Z,0.30
2023-04-02T08:15:17.788Z,0.30
2023-04-02T08:17:46.404Z,0.30
2023-04-02T08:20:22.437Z,0.30
2023-04-02T08:22:50.478Z,0.20
2023-04-02T08:25:17.205Z,0.80
2023-04-02T08:27:47.105Z,0.20
2023-04-02T08:30:14.651Z,0.43
2023-04-02T08:32:41.510Z,0.20
2023-04-02T08:35:10.895Z,0.20
2023-04-02T08:37:37.786Z,0.30
2023-04-02T08:40:06.996Z,0.28
2023-04-02T08:42:40.257Z,0.30
2023-04-02T08:45:38.275Z,0.30
2023-04-02T08:48:06.383Z,0.20
2023-04-02T08:50:39.902Z,0.20
2023-04-02T08:53:16.713Z,0.43
2023-04-02T08:56:17.842Z,0.20
2023-04-02T08:58:46.468Z,0.20
2023-04-02T09:02:14.568Z,0.30
2023-04-02T09:04:41.559Z,0.20
2023-04-02T09:07:14.176Z,0.30
2023-04-02T09:09:41.141Z,0.30
2023-04-02T09:12:18.015Z,0.20
2023-04-02T09:14:46.368Z,0.32
2023-04-02T09:17:17.094Z,0.30
2023-04-02T09:19:52.007Z,0.20
2023-04-02T09:22:22.738Z,0.20
2023-04-02T09:24:58.089Z,0.25
2023-04-02T09:27:30.668Z,0.20
2023-04-02T09:30:08.796Z,0.20
2023-04-02T09:33:13.577Z,0.20
2023-04-02T09:35:49.019Z,0.20
2023-04-02T09:38:23.132Z,0.50
2023-04-02T09:40:54.183Z,0.20
2023-04-02T09:43:24.150Z,0.30
2023-04-02T09:45:58.266Z,0.20
2023-04-02T09:48:39.074Z,0.20
2023-04-02T09:51:21.582Z,0.10
2023-04-02T09:54:08.494Z,0.20
2023-04-02T09:56:37.808Z,0.20
2023-04-02T09:59:21.623Z,0.22
2023-04-02T10:02:00.726Z,0.28
2023-04-02T10:04:39.287Z,0.20
2023-04-02T10:07:06.523Z,0.15
2023-04-02T10:09:38.044Z,0.20
2023-04-02T10:12:10.408Z,0.73
2023-04-02T10:14:43.080Z,0.20
2023-04-02T10:17:32.557Z,0.10
2023-04-02T10:20:06.455Z,0.30
2023-04-02T10:24:59.655Z,0.20
2023-04-02T10:27:33.438Z,0.28
2023-04-02T10:30:25.961Z,0.20
2023-04-02T10:33:33.073Z,0.10
2023-04-02T10:36:08.963Z,0.10
2023-04-02T10:38:44.137Z,0.10
2023-04-02T10:41:42.959Z,0.20
2023-04-02T10:44:29.224Z,0.10
2023-04-02T10:47:14.644Z,0.20
2023-04-02T10:49:50.652Z,0.25
2023-04-02T10:52:40.307Z,0.10
2023-04-02T10:55:18.650Z,0.20
2023-04-02T10:57:46.526Z,0.20
2023-04-02T11:00:15.825Z,0.10
2023-04-02T11:02:54.729Z,0.10
2023-04-02T11:05:43.351Z,0.20
2023-04-02T11:08:22.456Z,0.20
2023-04-02T11:10:55.861Z,0.20
2023-04-02T11:13:41.498Z,0.20
2023-04-02T11:16:08.196Z,0.20
2023-04-02T11:18:38.678Z,0.45
2023-04-02T11:21:08.069Z,0.20
2023-04-02T11:24:01.054Z,0.10
2023-04-02T11:26:47.948Z,0.22
2023-04-02T11:29:21.131Z,0.30
2023-04-02T11:31:49.901Z,0.17
2023-04-02T11:34:42.801Z,0.10
2023-04-02T11:37:43.800Z,0.30
2023-04-02T11:40:16.423Z,0.20
2023-04-02T11:42:48.212Z,0.10
2023-04-02T11:45:23.923Z,0.10
2023-04-02T11:47:59.636Z,0.10
2023-04-02T11:50:37.990Z,0.10
2023-04-02T11:53:10.878Z,0.10
2023-04-02T11:55:43.190Z,0.10
2023-04-02T11:58:32.244Z,0.10
2023-04-02T12:01:20.124Z,0.15
2023-04-02T12:04:21.083Z,0.20
2023-04-02T12:07:20.134Z,0.20
2023-04-02T12:09:55.434Z,0.20
2023-04-02T12:12:41.531Z,0.20
2023-04-02T12:15:28.611Z,0.20
2023-04-02T12:18:12.364Z,0.10
2023-04-02T12:20:39.147Z,0.38
2023-04-02T12:23:06.267Z,0.20
2023-04-02T12:25:39.966Z,0.15
2023-04-02T12:28:09.481Z,0.20
2023-04-02T12:30:37.386Z,0.20
2023-04-02T12:33:19.425Z,0.25
2023-04-02T12:35:47.957Z,0.20
2023-04-02T12:38:22.057Z,0.20
2023-04-02T12:40:53.419Z,0.20
2023-04-02T12:43:31.443Z,0.25
2023-04-02T12:46:01.934Z,0.20
2023-04-02T12:48:30.624Z,0.40
2023-04-02T12:50:58.510Z,0.15
2023-04-02T12:53:32.345Z,0.20
2023-04-02T12:58:29.108Z,0.20
2023-04-02T13:01:21.158Z,0.20
2023-04-02T13:04:07.295Z,0.15
2023-04-02T13:06:35.538Z,0.30
2023-04-02T13:09:05.086Z,0.40
2023-04-02T13:11:37.236Z,0.30
2023-04-02T13:14:06.213Z,0.35
2023-04-02T13:16:38.987Z,0.30
2023-04-02T13:19:17.579Z,0.40
2023-04-02T13:21:45.290Z,0.20
2023-04-02T13:24:20.740Z,0.20
2023-04-02T13:26:49.607Z,0.35
2023-04-02T13:29:25.574Z,0.20
2023-04-02T13:31:54.877Z,0.15
2023-04-02T13:34:21.906Z,0.20
2023-04-02T13:36:48.800Z,0.60
2023-04-02T13:39:15.357Z,0.35
2023-04-02T13:41:48.390Z,0.30
2023-04-02T13:44:20.858Z,0.37
2023-04-02T13:46:47.550Z,0.55
2023-04-02T13:49:14.742Z,0.40
2023-04-02T13:51:46.938Z,0.60
2023-04-02T13:54:22.956Z,0.70
2023-04-02T13:56:49.750Z,0.52
2023-04-02T13:59:16.508Z,0.30
2023-04-02T14:01:46.115Z,0.45
2023-04-02T14:04:18.948Z,0.30
2023-04-02T14:07:12.995Z,0.60
2023-04-02T14:10:05.045Z,0.30
2023-04-02T14:13:01.655Z,0.40
2023-04-02T14:15:50.971Z,0.20
2023-04-02T14:18:26.823Z,0.32
2023-04-02T14:21:26.451Z,0.20
2023-04-02T14:24:02.117Z,0.40
2023-04-02T14:27:10.064Z,0.20
2023-04-02T14:29:48.697Z,0.22
2023-04-02T14:32:36.484Z,0.30
2023-04-02T14:35:25.497Z,0.20
2023-04-02T14:38:09.496Z,0.30
2023-04-02T14:40:52.177Z,0.38
2023-04-02T14:43:30.063Z,0.40
2023-04-02T14:46:10.131Z,0.50
2023-04-02T14:48:54.232Z,0.40
2023-04-02T14:51:38.065Z,0.20
2023-04-02T14:54:18.298Z,0.30
2023-04-02T14:56:52.459Z,0.17
2023-04-02T14:59:37.528Z,0.30
2023-04-02T15:02:28.775Z,0.10
2023-04-02T15:05:03.290Z,0.10
2023-04-02T15:07:41.454Z,0.10
2023-04-02T15:10:22.904Z,0.15
2023-04-02T15:12:51.223Z,0.20
2023-04-02T15:15:33.140Z,0.10
2023-04-02T15:18:09.358Z,0.17
2023-04-02T15:20:48.531Z,0.17
2023-04-02T15:24:12.451Z,0.20
2023-04-02T15:27:07.150Z,0.25
2023-04-02T15:30:02.689Z,0.30
2023-04-02T15:32:32.082Z,0.50
2023-04-02T15:35:08.494Z,0.20
2023-04-02T15:38:12.126Z,0.20
2023-04-02T15:40:51.573Z,0.20
2023-04-02T15:43:28.737Z,0.30
2023-04-02T15:46:15.443Z,0.30
2023-04-02T15:49:20.293Z,0.22
2023-04-02T15:54:38.066Z,0.20
2023-04-02T15:57:10.905Z,0.35
2023-04-02T15:59:48.012Z,0.20
2023-04-02T16:02:36.085Z,0.30
2023-04-02T16:05:17.446Z,0.20
2023-04-02T16:07:50.081Z,0.20
2023-04-02T16:10:40.880Z,0.30
2023-04-02T16:13:17.893Z,0.50
2023-04-02T16:15:59.037Z,0.20
2023-04-02T16:18:43.801Z,0.30
2023-04-02T16:21:16.933Z,0.20
2023-04-02T16:23:43.559Z,0.47
2023-04-02T16:26:36.460Z,0.38
2023-04-02T16:29:09.116Z,0.60
2023-04-02T16:31:54.561Z,0.60
2023-04-02T16:35:22.208Z,0.30
2023-04-02T16:37:56.926Z,0.50
2023-04-02T16:43:17.856Z,0.40
2023-04-02T16:46:28.253Z,0.45
2023-04-02T16:49:02.702Z,0.65
2023-04-02T16:51:56.920Z,0.50
2023-04-02T16:54:41.224Z,0.28
2023-04-02T17:00:01.313Z,0.50
2023-04-02T17:02:57.249Z,0.80
2023-04-02T17:05:32.540Z,0.45
2023-04-02T17:08:24.183Z,0.50
2023-04-02T17:10:57.033Z,0.80
2023-04-02T17:13:50.358Z,0.75
2023-04-02T17:16:20.778Z,0.85
2023-04-02T17:18:50.988Z,0.68
2023-04-02T17:21:21.550Z,0.80
2023-04-02T17:23:56.234Z,0.93
2023-04-02T17:26:27.456Z,0.57
2023-04-02T17:28:56.007Z,0.93
2023-04-02T17:31:26.832Z,0.68
2023-04-02T17:33:53.427Z,0.50
2023-04-02T17:36:32.812Z,0.77
2023-04-02T17:39:20.094Z,0.57
2023-04-02T17:42:02.102Z,0.90
2023-04-02T17:44:42.588Z,0.50
2023-04-02T17:47:19.516Z,0.70
2023-04-02T17:50:11.314Z,0.43
2023-04-02T17:52:48.014Z,0.57
2023-04-02T17:55:28.512Z,0.57
2023-04-02T17:58:12.245Z,0.68
2023-04-02T18:00:45.646Z,0.90
2023-04-02T18:03:43.499Z,0.75
2023-04-02T18:06:28.844Z,0.80
2023-04-02T18:09:24.336Z,0.65
2023-04-02T18:12:18.833Z,0.85
2023-04-02T18:15:11.681Z,0.70
2023-04-02T18:17:49.954Z,1.10
2023-04-02T18:20:26.192Z,0.50
2023-04-02T18:23:21.699Z,0.65
2023-04-02T18:25:55.590Z,0.95
2023-04-02T18:31:34.672Z,0.80
2023-04-02T18:34:03.865Z,0.93
2023-04-02T18:37:00.808Z,1.33
2023-04-02T18:39:53.613Z,1.15
2023-04-02T18:42:39.942Z,0.80
2023-04-02T18:45:33.622Z,0.98
2023-04-02T18:48:24.414Z,0.93
2023-04-02T18:50:51.113Z,0.90
2023-04-02T18:53:21.516Z,0.82
2023-04-02T18:55:57.608Z,1.40
2023-04-02T18:58:33.858Z,1.02
2023-04-02T19:01:01.074Z,1.10
2023-04-02T19:03:46.419Z,1.35
2023-04-02T19:06:27.140Z,1.30
2023-04-02T19:09:01.103Z,0.88
2023-04-02T19:14:17.284Z,1.02
2023-04-02T19:17:05.530Z,1.15
2023-04-02T19:19:59.583Z,0.90
2023-04-02T19:22:52.346Z,1.10
2023-04-02T19:25:31.994Z,0.80
2023-04-02T19:28:18.701Z,1.42
2023-04-02T19:30:58.562Z,1.40
2023-04-02T19:33:38.116Z,1.05
2023-04-02T19:36:10.766Z,1.52
2023-04-02T19:38:53.542Z,0.70
2023-04-02T19:41:43.828Z,0.82
2023-04-02T19:44:13.395Z,0.98
2023-04-02T19:46:40.710Z,1.00
2023-04-02T19:49:22.967Z,1.00
2023-04-02T19:51:50.042Z,1.02
2023-04-02T19:54:16.625Z,0.95
2023-04-02T19:56:43.317Z,1.40
2023-04-02T20:01:43.516Z,0.98
2023-04-02T20:04:10.099Z,1.17
2023-04-02T20:06:37.446Z,1.35
2023-04-02T20:09:03.974Z,1.42
2023-04-02T20:11:31.021Z,0.90
2023-04-02T20:13:57.602Z,1.10
2023-04-02T20:16:24.219Z,0.85
2023-04-02T20:18:51.501Z,1.10
2023-04-02T20:21:18.069Z,1.02
2023-04-02T20:23:44.751Z,1.02
2023-04-02T20:26:12.605Z,1.10
2023-04-02T20:28:39.274Z,1.02
2023-04-02T20:31:12.067Z,0.90
2023-04-02T20:33:39.151Z,0.80
2023-04-02T20:36:08.310Z,1.10
2023-04-02T20:38:35.757Z,1.20
2023-04-02T20:41:04.113Z,1.10
2023-04-02T20:43:30.776Z,1.45
2023-04-02T20:45:59.481Z,0.85
2023-04-02T20:48:27.495Z,1.35
2023-04-02T20:50:54.402Z,1.30
2023-04-02T20:53:20.929Z,0.80
2023-04-02T20:55:47.574Z,0.80
2023-04-02T20:58:15.231Z,0.85
